createdAt,value
2022-11-27T00:01:24.953Z,102579.00
2022-11-27T00:03:52.666Z,102581.66
2022-11-27T00:06:23.547Z,102577.06
2022-11-27T00:08:51.275Z,102585.88
2022-11-27T00:11:20.928Z,102596.50
2022-11-27T00:13:49.067Z,102581.53
2022-11-27T00:16:17.592Z,102583.22
2022-11-27T00:18:45.691Z,102584.19
2022-11-27T00:21:16.248Z,102590.22
2022-11-27T00:23:45.404Z,102592.88
2022-11-27T00:26:13.190Z,102594.53
2022-11-27T00:28:41.111Z,102594.53
2022-11-27T00:31:13.528Z,102605.16
2022-11-27T00:33:41.409Z,102607.69
2022-11-27T00:36:10.269Z,102604.88
2022-11-27T00:38:39.319Z,102613.00
2022-11-27T00:41:09.448Z,102619.00
2022-11-27T00:43:44.077Z,102612.03
2022-11-27T00:46:13.094Z,102616.50
2022-11-27T00:48:41.156Z,102619.00
2022-11-27T00:51:12.469Z,102613.59
2022-11-27T00:53:40.511Z,102614.53
2022-11-27T00:56:09.681Z,102613.59
2022-11-27T00:58:37.316Z,102617.09
2022-11-27T01:01:08.248Z,102597.91
2022-11-27T01:03:36.328Z,102612.84
2022-11-27T01:06:04.534Z,102599.84
2022-11-27T01:08:32.244Z,102597.19
2022-11-27T01:11:00.592Z,102592.72
2022-11-27T01:13:31.821Z,102587.56
2022-11-27T01:16:00.467Z,102582.94
2022-11-27T01:18:28.069Z,102583.22
2022-11-27T01:20:56.185Z,102583.22
2022-11-27T01:23:24.622Z,102583.22
2022-11-27T01:25:53.315Z,102582.38
2022-11-27T01:28:21.788Z,102583.22
2022-11-27T01:30:51.738Z,102573.69
2022-11-27T01:33:19.805Z,102571.03
2022-11-27T01:35:55.169Z,102570.47
2022-11-27T01:38:22.983Z,102572.28
2022-11-27T01:40:50.769Z,102574.94
2022-11-27T01:43:18.324Z,102571.44
2022-11-27T01:45:46.306Z,102577.00
2022-11-27T01:48:15.514Z,102581.50
2022-11-27T01:50:43.340Z,102577.16
2022-11-27T01:53:16.245Z,102579.38
2022-11-27T01:55:47.797Z,102574.88
2022-11-27T01:58:27.937Z,102578.53
2022-11-27T02:00:55.636Z,102564.41
2022-11-27T02:03:24.797Z,102564.53
2022-11-27T02:05:52.487Z,102565.63
2022-11-27T02:08:20.165Z,102567.59
2022-11-27T02:10:53.004Z,102568.53
2022-11-27T02:13:29.014Z,102560.84
2022-11-27T02:16:08.069Z,102553.88
2022-11-27T02:18:43.585Z,102555.00
2022-11-27T02:21:20.673Z,102544.50
2022-11-27T02:24:14.220Z,102553.41
2022-11-27T02:27:06.125Z,102549.94
2022-11-27T02:29:37.653Z,102551.75
2022-11-27T02:32:11.331Z,102543.06
2022-11-27T02:34:46.922Z,102543.06
2022-11-27T02:37:21.488Z,102550.06
2022-11-27T02:39:56.511Z,102552.00
2022-11-27T02:42:25.314Z,102552.13
2022-11-27T02:45:01.536Z,102553.22
2022-11-27T02:47:30.129Z,102546.13
2022-11-27T02:49:58.841Z,102541.91
2022-11-27T02:52:28.479Z,102544.94
2022-11-27T02:54:59.447Z,102537.84
2022-11-27T02:57:29.289Z,102530.84
2022-11-27T02:59:59.129Z,102536.41
2022-11-27T03:02:33.866Z,102535.59
2022-11-27T03:05:03.705Z,102529.44
2022-11-27T03:07:38.395Z,102541.28
2022-11-27T03:10:10.896Z,102533.47
2022-11-27T03:12:38.471Z,102534.41
2022-11-27T03:15:08.634Z,102529.22
2022-11-27T03:17:51.541Z,102535.53
2022-11-27T03:20:24.797Z,102533.84
2022-11-27T03:22:53.919Z,102536.63
2022-11-27T03:25:21.732Z,102530.84
2022-11-27T03:27:55.580Z,102530.84
2022-11-27T03:30:24.628Z,102523.16
2022-11-27T03:32:52.509Z,102522.59
2022-11-27T03:35:24.126Z,102518.63
2022-11-27T03:37:52.632Z,102511.19
2022-11-27T03:40:21.413Z,102510.47
2022-11-27T03:43:00.090Z,102511.69
2022-11-27T03:45:36.511Z,102519.91
2022-11-27T03:48:19.652Z,102508.00
2022-11-27T03:51:00.744Z,102513.00
2022-11-27T03:53:35.929Z,102511.44
2022-11-27T03:56:11.361Z,102518.09
2022-11-27T03:58:42.098Z,102514.97
2022-11-27T04:01:14.305Z,102517.03
2022-11-27T04:03:41.904Z,102501.63
2022-11-27T04:06:09.527Z,102502.84
2022-11-27T04:08:37.073Z,102507.69
2022-11-27T04:11:04.840Z,102507.09
2022-11-27T04:13:32.424Z,102507.50
2022-11-27T04:16:01.612Z,102508.00
2022-11-27T04:18:30.625Z,102508.34
2022-11-27T04:20:58.216Z,102519.56
2022-11-27T04:23:25.944Z,102516.47
2022-11-27T04:25:53.505Z,102509.84
2022-11-27T04:28:21.228Z,102505.97
2022-11-27T04:30:53.743Z,102497.56
2022-11-27T04:33:21.716Z,102496.97
2022-11-27T04:35:51.269Z,102491.06
2022-11-27T04:38:19.143Z,102481.69
2022-11-27T04:40:46.785Z,102468.81
2022-11-27T04:43:14.781Z,102478.81
2022-11-27T04:45:43.786Z,102471.25
2022-11-27T04:48:11.373Z,102471.50
2022-11-27T04:50:39.235Z,102458.63
2022-11-27T04:53:08.145Z,102457.91
2022-11-27T04:55:35.938Z,102456.44
2022-11-27T04:58:03.518Z,102450.69
2022-11-27T05:00:31.159Z,102445.75
2022-11-27T05:02:58.758Z,102445.03
2022-11-27T05:05:26.364Z,102433.84
2022-11-27T05:07:53.998Z,102438.53
2022-11-27T05:10:22.985Z,102430.84
2022-11-27T05:12:50.911Z,102421.34
2022-11-27T05:15:18.541Z,102418.00
2022-11-27T05:17:46.108Z,102406.81
2022-11-27T05:20:13.803Z,102414.88
2022-11-27T05:22:41.369Z,102408.84
2022-11-27T05:25:09.661Z,102409.00
2022-11-27T05:27:38.591Z,102415.38
2022-11-27T05:30:07.715Z,102412.97
2022-11-27T05:32:35.286Z,102405.38
2022-11-27T05:35:02.917Z,102408.38
2022-11-27T05:37:30.478Z,102425.19
2022-11-27T05:39:58.028Z,102418.44
2022-11-27T05:42:25.616Z,102415.09
2022-11-27T05:44:58.231Z,102410.91
2022-11-27T05:47:26.262Z,102418.34
2022-11-27T05:49:54.033Z,102425.66
2022-11-27T05:52:21.721Z,102429.38
2022-11-27T05:54:49.285Z,102418.06
2022-11-27T05:57:16.830Z,102420.00
2022-11-27T05:59:44.404Z,102427.22
2022-11-27T06:02:19.995Z,102432.59
2022-11-27T06:04:49.241Z,102426.84
2022-11-27T06:07:16.964Z,102432.34
2022-11-27T06:09:44.514Z,102439.53
2022-11-27T06:12:12.085Z,102419.47
2022-11-27T06:14:39.830Z,102426.69
2022-11-27T06:17:07.567Z,102415.41
2022-11-27T06:19:36.503Z,102408.66
2022-11-27T06:22:04.121Z,102408.03
2022-11-27T06:24:31.681Z,102412.59
2022-11-27T06:26:59.245Z,102412.84
2022-11-27T06:29:26.845Z,102409.56
2022-11-27T06:31:54.452Z,102413.31
2022-11-27T06:34:22.149Z,102400.31
2022-11-27T06:36:51.420Z,102407.53
2022-11-27T06:39:19.000Z,102407.63
2022-11-27T06:41:46.592Z,102404.28
2022-11-27T06:44:14.394Z,102393.81
2022-11-27T06:46:41.928Z,102394.78
2022-11-27T06:49:10.280Z,102391.41
2022-11-27T06:51:37.899Z,102394.88
2022-11-27T06:54:06.972Z,102390.56
2022-11-27T06:56:34.886Z,102404.59
2022-11-27T06:59:02.713Z,102402.09
2022-11-27T07:01:32.224Z,102397.75
2022-11-27T07:04:00.313Z,102391.63
2022-11-27T07:06:28.456Z,102385.50
2022-11-27T07:08:57.111Z,102388.28
2022-11-27T07:11:28.281Z,102391.84
2022-11-27T07:13:57.715Z,102386.69
2022-11-27T07:16:26.371Z,102386.00
2022-11-27T07:18:56.008Z,102379.00
2022-11-27T07:21:23.760Z,102387.66
2022-11-27T07:23:51.760Z,102389.44
2022-11-27T07:26:21.363Z,102384.16
2022-11-27T07:28:50.756Z,102388.50
2022-11-27T07:31:21.677Z,102390.91
2022-11-27T07:33:49.848Z,102393.41
2022-11-27T07:36:18.977Z,102393.31
2022-11-27T07:38:46.708Z,102379.19
2022-11-27T07:41:15.530Z,102379.88
2022-11-27T07:43:44.195Z,102375.47
2022-11-27T07:46:15.610Z,102363.91
2022-11-27T07:48:43.396Z,102365.50
2022-11-27T07:51:12.615Z,102371.38
2022-11-27T07:53:41.626Z,102369.59
2022-11-27T07:56:11.243Z,102370.09
2022-11-27T07:58:38.796Z,102362.03
2022-11-27T08:01:08.571Z,102355.69
2022-11-27T08:03:38.461Z,102342.16
2022-11-27T08:06:06.807Z,102332.06
2022-11-27T08:08:34.703Z,102326.69
2022-11-27T08:11:02.252Z,102312.16
2022-11-27T08:13:29.849Z,102305.41
2022-11-27T08:16:00.217Z,102314.31
2022-11-27T08:18:27.977Z,102325.00
2022-11-27T08:20:56.893Z,102321.63
2022-11-27T08:23:24.480Z,102311.28
2022-11-27T08:25:52.070Z,102309.47
2022-11-27T08:28:19.632Z,102314.97
2022-11-27T08:30:47.286Z,102321.84
2022-11-27T08:33:14.858Z,102331.19
2022-11-27T08:35:49.120Z,102329.41
2022-11-27T08:38:18.769Z,102333.94
2022-11-27T08:40:46.360Z,102337.19
2022-11-27T08:43:13.934Z,102332.38
2022-11-27T08:45:41.541Z,102331.53
2022-11-27T08:48:09.088Z,102315.53
2022-11-27T08:50:38.225Z,102321.06
2022-11-27T08:53:05.760Z,102322.88
2022-11-27T08:55:34.710Z,102324.91
2022-11-27T08:58:03.828Z,102321.31
2022-11-27T09:00:31.778Z,102316.03
2022-11-27T09:03:00.530Z,102324.66
2022-11-27T09:05:28.329Z,102324.66
2022-11-27T09:07:56.437Z,102317.78
2022-11-27T09:10:24.240Z,102313.81
2022-11-27T09:12:53.235Z,102305.25
2022-11-27T09:15:20.776Z,102300.81
2022-11-27T09:17:48.353Z,102292.28
2022-11-27T09:20:16.069Z,102295.50
2022-11-27T09:22:43.787Z,102297.16
2022-11-27T09:25:11.359Z,102294.09
2022-11-27T09:27:39.261Z,102298.63
2022-11-27T09:30:10.014Z,102305.25
2022-11-27T09:32:37.988Z,102295.91
2022-11-27T09:35:06.303Z,102300.81
2022-11-27T09:37:34.060Z,102291.06
2022-11-27T09:40:01.771Z,102293.63
2022-11-27T09:42:39.005Z,102301.84
2022-11-27T09:45:14.344Z,102301.00
2022-11-27T09:47:45.726Z,102291.13
2022-11-27T09:50:18.407Z,102304.75
2022-11-27T09:52:50.724Z,102306.75
2022-11-27T09:55:24.412Z,102296.03
2022-11-27T09:58:00.420Z,102286.97
2022-11-27T10:00:29.790Z,102287.81
2022-11-27T10:02:57.701Z,102295.25
2022-11-27T10:05:27.799Z,102274.75
2022-11-27T10:08:11.525Z,102268.50
2022-11-27T10:10:44.706Z,102273.28
2022-11-27T10:13:24.604Z,102263.13
2022-11-27T10:15:57.752Z,102254.78
2022-11-27T10:18:32.678Z,102257.56
2022-11-27T10:21:08.489Z,102254.75
2022-11-27T10:23:46.206Z,102254.63
2022-11-27T10:26:19.541Z,102259.06
2022-11-27T10:28:54.300Z,102271.34
2022-11-27T10:31:34.037Z,102281.41
2022-11-27T10:34:05.276Z,102272.66
2022-11-27T10:36:37.286Z,102271.28
2022-11-27T10:39:08.292Z,102270.59
2022-11-27T10:41:49.295Z,102260.00
2022-11-27T10:44:28.142Z,102246.63
2022-11-27T10:47:02.670Z,102243.00
2022-11-27T10:49:30.281Z,102245.25
2022-11-27T10:51:57.924Z,102230.06
2022-11-27T10:54:28.980Z,102232.00
2022-11-27T10:57:15.707Z,102226.25
2022-11-27T10:59:47.673Z,102222.63
2022-11-27T11:02:31.280Z,102222.84
2022-11-27T11:05:30.037Z,102225.22
2022-11-27T11:07:56.817Z,102231.59
2022-11-27T12:05:06.936Z,102148.94
2022-11-27T12:07:51.844Z,102146.13
2022-11-27T12:10:25.843Z,102131.66
2022-11-27T12:13:03.788Z,102123.44
2022-11-27T12:15:36.012Z,102121.91
2022-11-27T12:18:11.033Z,102117.72
2022-11-27T12:20:54.813Z,102116.63
2022-11-27T12:23:51.120Z,102112.47
2022-11-27T12:26:29.921Z,102119.88
2022-11-27T12:29:18.871Z,102127.66
2022-11-27T12:32:05.363Z,102126.56
2022-11-27T12:34:46.041Z,102115.81
2022-11-27T12:37:28.166Z,102104.69
2022-11-27T12:40:09.784Z,102098.53
2022-11-27T12:42:47.553Z,102098.38
2022-11-27T12:45:21.613Z,102104.09
2022-11-27T12:47:52.693Z,102103.28
2022-11-27T12:50:27.320Z,102100.47
2022-11-27T12:53:01.204Z,102097.97
2022-11-27T12:55:32.249Z,102101.59
2022-11-27T12:58:04.212Z,102104.94
2022-11-27T13:00:36.583Z,102095.31
2022-11-27T13:03:09.389Z,102096.28
2022-11-27T13:05:44.431Z,102089.47
2022-11-27T13:08:16.528Z,102088.88
2022-11-27T13:10:49.642Z,102086.78
2022-11-27T13:13:23.056Z,102088.44
2022-11-27T13:15:57.123Z,102083.25
2022-11-27T13:18:33.765Z,102077.41
2022-11-27T13:21:04.971Z,102064.44
2022-11-27T13:23:34.543Z,102069.88
2022-11-27T13:26:07.222Z,102064.84
2022-11-27T13:28:41.478Z,102061.50
2022-11-27T13:31:18.185Z,102058.41
2022-11-27T13:33:47.085Z,102061.88
2022-11-27T13:36:21.709Z,102050.44
2022-11-27T13:38:57.517Z,102049.06
2022-11-27T13:41:31.390Z,102053.63
2022-11-27T13:43:59.415Z,102053.63
2022-11-27T13:46:29.304Z,102045.97
2022-11-27T13:49:02.580Z,102036.47
2022-11-27T13:51:32.648Z,102041.66
2022-11-27T13:54:12.829Z,102050.44
2022-11-27T13:56:41.249Z,102049.88
2022-11-27T13:59:17.625Z,102056.28
2022-11-27T14:01:56.452Z,102050.25
2022-11-27T14:04:24.177Z,102047.03
2022-11-27T14:06:58.845Z,102041.84
2022-11-27T14:09:43.605Z,102036.72
2022-11-27T14:12:17.369Z,102037.78
2022-11-27T14:14:46.340Z,102038.78
2022-11-27T14:17:27.674Z,102036.25
2022-11-27T14:20:19.655Z,102030.97
2022-11-27T14:23:10.411Z,102031.97
2022-11-27T14:25:39.104Z,102022.34
2022-11-27T14:28:15.269Z,102022.44
2022-11-27T14:30:47.473Z,102013.69
2022-11-27T14:33:20.660Z,102011.88
2022-11-27T14:35:52.393Z,102017.16
2022-11-27T14:38:20.618Z,102006.72
2022-11-27T14:40:53.110Z,102014.78
2022-11-27T14:43:25.823Z,102006.16
2022-11-27T14:45:55.181Z,102010.59
2022-11-27T14:48:25.257Z,102007.09
2022-11-27T14:50:55.089Z,102006.28
2022-11-27T14:53:26.119Z,102006.56
2022-11-27T14:55:58.440Z,101997.78
2022-11-27T14:58:28.786Z,101997.91
2022-11-27T15:00:59.875Z,101997.91
2022-11-27T15:03:28.019Z,101990.09
2022-11-27T15:05:59.139Z,101987.03
2022-11-27T15:08:27.455Z,101992.19
2022-11-27T15:10:58.574Z,101989.69
2022-11-27T15:13:28.355Z,101983.41
2022-11-27T15:16:01.249Z,101986.88
2022-11-27T15:18:31.336Z,101986.88
2022-11-27T15:21:00.601Z,101988.56
2022-11-27T15:23:30.275Z,101986.19
2022-11-27T15:26:16.067Z,101985.19
2022-11-27T15:28:52.381Z,101979.38
2022-11-27T15:31:27.191Z,101977.41
2022-11-27T15:33:59.973Z,101972.13
2022-11-27T15:36:28.247Z,101974.06
2022-11-27T15:39:11.909Z,101970.44
2022-11-27T15:41:51.273Z,101969.47
2022-11-27T15:44:18.912Z,101978.53
2022-11-27T15:46:46.929Z,101968.78
2022-11-27T15:49:15.644Z,101966.00
2022-11-27T15:51:44.135Z,101971.28
2022-11-27T15:54:11.700Z,101969.31
2022-11-27T15:56:39.280Z,101969.47
2022-11-27T15:59:08.219Z,101967.78
2022-11-27T16:01:35.817Z,101956.38
2022-11-27T16:04:03.691Z,101955.41
2022-11-27T16:06:31.224Z,101951.91
2022-11-27T16:09:00.468Z,101962.38
2022-11-27T16:11:30.442Z,101949.16
2022-11-27T16:13:58.116Z,101941.22
2022-11-27T16:16:27.832Z,101939.41
2022-11-27T16:18:59.544Z,101939.25
2022-11-27T16:21:29.901Z,101947.03
2022-11-27T16:23:58.918Z,101938.16
2022-11-27T16:26:27.052Z,101933.53
2022-11-27T16:28:54.744Z,101930.09
2022-11-27T16:31:23.598Z,101931.75
2022-11-27T16:33:53.180Z,101927.19
2022-11-27T16:36:21.901Z,101929.94
2022-11-27T16:38:50.290Z,101914.91
2022-11-27T16:41:19.661Z,101909.47
2022-11-27T16:43:49.376Z,101910.03
2022-11-27T16:46:19.870Z,101913.53
2022-11-27T16:48:49.288Z,101903.91
2022-11-27T16:51:20.122Z,101902.94
2022-11-27T16:53:49.564Z,101903.63
2022-11-27T16:56:18.996Z,101895.69
2022-11-27T16:58:47.693Z,101890.28
2022-11-27T17:01:17.625Z,101895.69
2022-11-27T17:03:46.853Z,101888.47
2022-11-27T17:06:17.471Z,101899.91
2022-11-27T17:08:47.376Z,101878.56
2022-11-27T17:11:17.345Z,101872.59
2022-11-27T17:13:45.608Z,101876.75
2022-11-27T17:16:13.760Z,101874.13
2022-11-27T17:18:42.996Z,101864.66
2022-11-27T17:21:12.452Z,101860.88
2022-11-27T17:23:42.989Z,101849.47
2022-11-27T17:26:14.188Z,101857.41
2022-11-27T17:28:41.833Z,101855.59
2022-11-27T17:31:10.457Z,101854.63
2022-11-27T17:33:38.050Z,101843.31
2022-11-27T17:36:06.465Z,101851.25
2022-11-27T17:38:34.037Z,101868.13
2022-11-27T17:41:02.183Z,101861.00
2022-11-27T17:43:31.264Z,101859.19
2022-11-27T17:45:59.311Z,101845.97
2022-11-27T17:48:27.508Z,101845.97
2022-11-27T17:50:55.529Z,101842.47
2022-11-27T17:53:23.108Z,101831.09
2022-11-27T17:55:50.648Z,101838.47
2022-11-27T17:58:18.404Z,101832.88
2022-11-27T18:00:47.704Z,101820.78
2022-11-27T18:03:15.360Z,101831.34
2022-11-27T18:05:43.002Z,101819.09
2022-11-27T18:08:10.646Z,101817.97
2022-11-27T18:10:38.212Z,101811.00
2022-11-27T18:13:06.151Z,101813.53
2022-11-27T18:15:35.012Z,101814.50
2022-11-27T18:18:04.108Z,101817.84
2022-11-27T18:20:31.691Z,101810.88
2022-11-27T18:22:59.276Z,101808.22
2022-11-27T18:25:26.878Z,101814.38
2022-11-27T18:27:54.493Z,101818.66
2022-11-27T18:30:22.209Z,101806.16
2022-11-27T18:32:49.996Z,101817.56
2022-11-27T18:35:19.018Z,101810.44
2022-11-27T18:37:46.569Z,101809.75
2022-11-27T18:40:14.628Z,101811.56
2022-11-27T18:42:42.217Z,101808.91
2022-11-27T18:45:31.236Z,101805.59
2022-11-27T18:47:57.985Z,101802.94
2022-11-27T18:50:29.879Z,101800.28
2022-11-27T18:52:57.673Z,101783.72
2022-11-27T18:55:25.197Z,101784.53
2022-11-27T18:57:52.787Z,101778.44
2022-11-27T19:00:21.235Z,101785.66
2022-11-27T19:02:48.873Z,101784.81
2022-11-27T19:05:16.609Z,101785.66
2022-11-27T19:07:45.598Z,101789.03
2022-11-27T19:10:13.257Z,101775.78
2022-11-27T19:12:40.894Z,101772.41
2022-11-27T19:15:09.761Z,101768.53
2022-11-27T19:17:37.415Z,101761.16
2022-11-27T19:20:08.318Z,101765.19
2022-11-27T19:22:38.190Z,101769.38
2022-11-27T19:25:08.473Z,101774.50
2022-11-27T19:27:36.066Z,101777.31
2022-11-27T19:30:05.140Z,101771.19
2022-11-27T19:32:32.712Z,101757.94
2022-11-27T19:35:05.691Z,101761.44
2022-11-27T19:37:36.851Z,101765.88
2022-11-27T19:40:06.378Z,101758.78
2022-11-27T19:42:35.477Z,101761.56
2022-11-27T19:45:03.210Z,101754.63
2022-11-27T19:47:31.036Z,101751.25
2022-11-27T19:49:58.604Z,101746.81
2022-11-27T19:52:26.236Z,101750.28
2022-11-27T19:54:53.788Z,101748.59
2022-11-27T19:57:21.365Z,101748.47
2022-11-27T19:59:50.265Z,101745.84
2022-11-27T20:02:17.846Z,101744.16
2022-11-27T20:04:45.574Z,101738.84
2022-11-27T20:07:13.196Z,101735.38
2022-11-27T20:09:40.806Z,101724.94
2022-11-27T20:12:08.449Z,101727.59
2022-11-27T20:14:37.720Z,101722.47
2022-11-27T20:17:06.949Z,101711.03
2022-11-27T20:19:34.552Z,101707.53
2022-11-27T20:22:02.111Z,101703.09
2022-11-27T20:24:29.677Z,101701.97
2022-11-27T20:26:57.389Z,101693.75
2022-11-27T20:29:24.932Z,101698.09
2022-11-27T20:31:52.761Z,101694.44
2022-11-27T20:34:22.937Z,101700.72
2022-11-27T20:36:51.014Z,101696.41
2022-11-27T20:39:21.562Z,101699.88
2022-11-27T20:41:51.241Z,101694.59
2022-11-27T20:44:19.167Z,101704.22
2022-11-27T20:46:46.768Z,101698.94
2022-11-27T20:49:14.614Z,101700.56
2022-11-27T20:51:43.780Z,101703.22
2022-11-27T20:54:12.189Z,101704.22
2022-11-27T20:56:40.823Z,101701.41
2022-11-27T20:59:08.809Z,101697.09
2022-11-27T21:01:37.748Z,101699.88
2022-11-27T21:04:09.333Z,101680.13
2022-11-27T21:06:43.444Z,101675.66
2022-11-27T21:09:13.758Z,101678.44
2022-11-27T21:11:42.154Z,101679.28
2022-11-27T21:14:12.116Z,101663.94
2022-11-27T21:16:42.911Z,101673.56
2022-11-27T21:19:15.400Z,101663.66
2022-11-27T21:21:43.021Z,101662.69
2022-11-27T21:24:11.427Z,101655.88
2022-11-27T21:26:41.625Z,101666.19
2022-11-27T21:29:10.121Z,101671.31
2022-11-27T21:31:38.865Z,101666.84
2022-11-27T21:34:10.331Z,101706.72
2022-11-27T21:36:38.758Z,101695.13
2022-11-27T21:39:08.293Z,101688.03
2022-11-27T21:41:36.754Z,101690.81
2022-11-27T21:44:06.675Z,101686.38
2022-11-27T21:46:34.897Z,101679.41
2022-11-27T21:49:03.106Z,101676.19
2022-11-27T21:51:30.852Z,101670.91
2022-11-27T21:53:59.764Z,101655.72
2022-11-27T21:56:29.879Z,101666.47
2022-11-27T21:58:57.699Z,101664.78
2022-11-27T22:01:27.418Z,101653.22
2022-11-27T22:03:56.439Z,101656.72
2022-11-27T22:06:26.308Z,101647.78
2022-11-27T22:08:57.109Z,101649.75
2022-11-27T22:11:28.668Z,101646.13
2022-11-27T22:13:57.228Z,101643.63
2022-11-27T22:16:28.976Z,101629.84
2022-11-27T22:18:58.048Z,101639.44
2022-11-27T22:21:27.243Z,101632.50
2022-11-27T22:23:55.160Z,101630.66
2022-11-27T22:26:24.672Z,101619.41
2022-11-27T22:28:52.576Z,101613.72
2022-11-27T22:31:22.781Z,101614.69
2022-11-27T22:33:51.902Z,101606.75
2022-11-27T22:36:21.964Z,101608.56
2022-11-27T22:38:52.004Z,101609.38
2022-11-27T22:41:21.108Z,101622.50
2022-11-27T22:43:48.965Z,101608.56
2022-11-27T22:46:19.135Z,101610.22
2022-11-27T22:48:47.559Z,101611.06
2022-11-27T22:51:16.450Z,101607.72
2022-11-27T22:53:43.970Z,101597.28
2022-11-27T22:56:12.961Z,101597.13
2022-11-27T22:58:41.823Z,101596.31
2022-11-27T23:01:10.984Z,101582.94
2022-11-27T23:03:38.806Z,101587.81
2022-11-27T23:06:11.467Z,101579.16
2022-11-27T23:08:40.863Z,101570.38
2022-11-27T23:11:10.144Z,101574.03
2022-11-27T23:13:37.799Z,101574.88
2022-11-27T23:16:07.424Z,101563.44
2022-11-27T23:18:35.565Z,101559.81
2022-11-27T23:21:06.534Z,101558.28
2022-11-27T23:23:34.144Z,101557.16
2022-11-27T23:26:05.064Z,101565.81
2022-11-27T23:28:32.825Z,101554.38
2022-11-27T23:31:28.015Z,101551.06
2022-11-27T23:33:52.660Z,101541.16
2022-11-27T23:36:20.629Z,101550.91
2022-11-27T23:38:48.894Z,101536.00
2022-11-27T23:41:20.076Z,101528.22
2022-11-27T23:43:48.199Z,101528.91
2022-11-27T23:46:17.865Z,101529.91
2022-11-27T23:48:45.866Z,101525.28
2022-11-27T23:51:15.528Z,101528.78
2022-11-27T23:53:43.473Z,101515.56
2022-11-27T23:56:13.265Z,101503.28
2022-11-27T23:58:46.953Z,101498.84
